createdAt,value
2023-02-12T00:00:37.606Z,3.67
2023-02-12T00:03:04.609Z,3.63
2023-02-12T00:05:31.472Z,3.38
2023-02-12T00:07:57.951Z,3.58
2023-02-12T00:10:24.617Z,3.63
2023-02-12T00:12:54.620Z,2.75
2023-02-12T00:15:21.448Z,3.38
2023-02-12T00:17:47.885Z,3.33
2023-02-12T00:20:14.300Z,3.88
2023-02-12T00:22:40.785Z,3.05
2023-02-12T00:25:07.405Z,3.15
2023-02-12T00:27:34.504Z,4.80
2023-02-12T00:30:00.950Z,3.85
2023-02-12T00:32:27.333Z,3.22
2023-02-12T00:34:56.067Z,3.58
2023-02-12T00:37:22.487Z,4.10
2023-02-12T00:39:48.951Z,4.25
2023-02-12T00:42:15.340Z,4.40
2023-02-12T00:44:41.736Z,4.70
2023-02-12T00:47:08.175Z,4.85
2023-02-12T00:49:34.616Z,4.03
2023-02-12T00:52:02.015Z,4.75
2023-02-12T00:54:29.178Z,4.13
2023-02-12T00:56:55.959Z,3.97
2023-02-12T00:59:23.308Z,4.07
2023-02-12T01:01:50.207Z,4.30
2023-02-12T01:04:17.175Z,4.38
2023-02-12T01:06:43.653Z,4.00
2023-02-12T01:09:10.058Z,5.03
2023-02-12T01:11:36.475Z,5.25
2023-02-12T01:14:02.998Z,6.03
2023-02-12T01:16:36.770Z,6.22
2023-02-12T01:19:04.330Z,6.05
2023-02-12T01:21:31.645Z,5.75
2023-02-12T01:23:58.192Z,5.53
2023-02-12T01:26:25.119Z,5.38
2023-02-12T01:28:52.984Z,6.32
2023-02-12T01:31:22.007Z,6.50
2023-02-12T01:33:49.473Z,7.43
2023-02-12T01:36:15.960Z,6.40
2023-02-12T01:38:42.364Z,7.03
2023-02-12T01:41:19.317Z,8.48
2023-02-12T01:43:48.827Z,6.38
2023-02-12T01:46:15.363Z,6.93
2023-02-12T01:48:47.553Z,6.57
2023-02-12T01:51:17.085Z,6.80
2023-02-12T01:53:49.039Z,8.18
2023-02-12T01:56:15.961Z,8.75
2023-02-12T01:58:43.852Z,7.53
2023-02-12T02:01:12.725Z,6.03
2023-02-12T02:03:39.927Z,7.10
2023-02-12T02:06:14.085Z,7.78
2023-02-12T02:08:41.366Z,8.02
2023-02-12T02:11:27.830Z,8.50
2023-02-12T02:14:13.374Z,11.43
2023-02-12T02:16:47.208Z,10.02
2023-02-12T02:19:24.885Z,10.10
2023-02-12T02:22:22.836Z,9.95
2023-02-12T02:25:07.288Z,12.70
2023-02-12T02:27:40.508Z,11.85
2023-02-12T02:30:14.930Z,10.80
2023-02-12T02:32:50.044Z,11.32
2023-02-12T02:35:35.201Z,9.85
2023-02-12T02:38:34.117Z,11.02
2023-02-12T02:41:03.396Z,9.93
2023-02-12T02:43:33.376Z,10.68
2023-02-12T02:46:03.042Z,8.93
2023-02-12T02:48:33.419Z,9.45
2023-02-12T02:51:03.768Z,11.63
2023-02-12T02:53:32.170Z,9.57
2023-02-12T02:56:00.164Z,8.23
2023-02-12T02:58:36.012Z,7.90
2023-02-12T03:01:14.820Z,9.55
2023-02-12T03:03:56.515Z,10.45
2023-02-12T03:06:22.883Z,9.10
2023-02-12T03:09:09.807Z,12.90
2023-02-12T03:11:36.282Z,10.25
2023-02-12T03:14:06.206Z,7.95
2023-02-12T03:16:35.005Z,8.97
2023-02-12T03:19:05.633Z,9.77
2023-02-12T03:21:44.046Z,8.68
2023-02-12T03:24:30.750Z,8.43
2023-02-12T03:27:04.955Z,10.07
2023-02-12T03:29:31.987Z,8.75
2023-02-12T03:32:01.172Z,10.63
2023-02-12T03:34:36.718Z,9.32
2023-02-12T03:37:03.099Z,11.38
2023-02-12T03:39:33.272Z,11.55
2023-02-12T03:42:07.548Z,10.98
2023-02-12T03:44:46.073Z,13.10
2023-02-12T03:47:18.550Z,11.77
2023-02-12T03:49:51.019Z,12.40
2023-02-12T03:52:17.480Z,13.57
2023-02-12T03:54:43.941Z,10.73
2023-02-12T03:57:20.799Z,10.68
2023-02-12T03:59:49.234Z,9.45
2023-02-12T04:02:16.926Z,12.23
2023-02-12T04:04:44.339Z,12.65
2023-02-12T04:07:11.083Z,11.32
2023-02-12T04:09:37.536Z,11.60
2023-02-12T04:12:03.956Z,10.82
2023-02-12T04:14:44.452Z,13.00
2023-02-12T04:17:20.423Z,9.52
2023-02-12T04:20:05.751Z,12.02
2023-02-12T04:22:50.813Z,11.75
2023-02-12T04:25:49.693Z,14.38
2023-02-12T04:28:34.733Z,9.15
2023-02-12T04:31:06.315Z,11.30
2023-02-12T04:33:35.876Z,11.82
2023-02-12T04:36:22.555Z,13.27
2023-02-12T04:38:57.716Z,9.80
2023-02-12T04:41:25.287Z,11.20
2023-02-12T04:43:51.682Z,12.25
2023-02-12T04:46:18.146Z,13.57
2023-02-12T04:48:52.076Z,14.35
2023-02-12T04:51:18.486Z,11.88
2023-02-12T04:53:45.090Z,10.50
2023-02-12T04:56:13.058Z,11.43
2023-02-12T04:58:40.180Z,12.85
2023-02-12T05:01:07.018Z,13.82
2023-02-12T05:03:33.441Z,10.98
2023-02-12T05:06:06.648Z,14.45
2023-02-12T05:08:33.409Z,12.18
2023-02-12T05:11:06.959Z,11.93
2023-02-12T05:13:33.502Z,11.63
2023-02-12T05:16:00.012Z,11.63
2023-02-12T05:18:26.492Z,18.13
2023-02-12T05:20:57.020Z,16.65
2023-02-12T05:23:23.891Z,15.60
2023-02-12T05:25:50.441Z,21.52
2023-02-12T05:28:16.870Z,15.70
2023-02-12T05:30:43.405Z,15.93
2023-02-12T05:33:09.882Z,16.77
2023-02-12T05:35:36.360Z,16.30
2023-02-12T05:38:03.045Z,13.55
2023-02-12T05:40:29.491Z,11.20
2023-02-12T05:43:00.000Z,12.65
2023-02-12T05:45:28.049Z,12.15
2023-02-12T05:47:54.672Z,14.15
2023-02-12T05:50:21.153Z,13.80
2023-02-12T05:52:47.654Z,13.43
2023-02-12T05:55:14.307Z,15.38
2023-02-12T05:57:40.711Z,15.43
2023-02-12T06:00:08.547Z,13.55
2023-02-12T06:02:35.212Z,14.88
2023-02-12T06:05:02.071Z,12.30
2023-02-12T06:07:28.700Z,15.77
2023-02-12T06:09:55.264Z,15.05
2023-02-12T06:12:21.716Z,11.88
2023-02-12T06:14:48.103Z,18.92
2023-02-12T06:17:14.566Z,19.65
2023-02-12T06:19:41.141Z,15.52
2023-02-12T06:22:07.517Z,17.55
2023-02-12T06:24:34.035Z,14.25
2023-02-12T06:27:00.449Z,13.35
2023-02-12T06:29:26.870Z,14.25
2023-02-12T06:31:53.422Z,12.82
2023-02-12T06:34:19.960Z,13.05
2023-02-12T06:36:47.132Z,14.52
2023-02-12T06:39:14.999Z,13.18
2023-02-12T06:41:41.472Z,18.10
2023-02-12T06:44:08.354Z,11.90
2023-02-12T06:46:34.819Z,11.35
2023-02-12T06:49:01.475Z,12.63
2023-02-12T06:51:29.038Z,9.60
2023-02-12T06:53:55.879Z,9.70
2023-02-12T06:56:23.566Z,8.75
2023-02-12T06:58:56.720Z,8.48
2023-02-12T07:01:27.423Z,8.00
2023-02-12T07:03:54.925Z,7.50
2023-02-12T07:06:22.074Z,7.72
2023-02-12T07:08:48.712Z,6.47
2023-02-12T07:11:15.714Z,7.47
2023-02-12T07:13:42.711Z,6.45
2023-02-12T07:16:13.631Z,6.53
2023-02-12T07:18:40.390Z,5.40
2023-02-12T07:21:07.828Z,5.95
2023-02-12T07:23:34.758Z,5.32
2023-02-12T07:26:02.331Z,5.80
2023-02-12T07:28:28.919Z,5.30
2023-02-12T07:30:55.436Z,5.60
2023-02-12T07:33:21.845Z,5.20
2023-02-12T07:35:48.389Z,5.95
2023-02-12T07:38:15.150Z,7.00
2023-02-12T07:40:41.677Z,6.50
2023-02-12T07:43:08.077Z,5.05
2023-02-12T07:45:34.498Z,5.72
2023-02-12T07:48:00.954Z,6.03
2023-02-12T07:50:27.360Z,6.40
2023-02-12T07:52:53.770Z,5.38
2023-02-12T07:55:20.206Z,4.07
2023-02-12T07:57:46.637Z,4.10
2023-02-12T08:00:13.332Z,4.43
2023-02-12T08:02:42.660Z,4.90
2023-02-12T08:05:09.095Z,4.05
2023-02-12T08:07:35.564Z,4.10
2023-02-12T08:10:02.046Z,4.07
2023-02-12T08:12:28.532Z,3.45
2023-02-12T08:14:55.002Z,4.35
2023-02-12T08:17:21.382Z,3.75
2023-02-12T08:19:47.801Z,3.83
2023-02-12T08:22:14.315Z,6.70
2023-02-12T08:24:40.768Z,3.65
2023-02-12T08:27:07.214Z,4.32
2023-02-12T08:29:33.616Z,4.47
2023-02-12T08:32:03.612Z,4.30
2023-02-12T08:34:31.522Z,4.95
2023-02-12T08:36:58.182Z,4.72
2023-02-12T08:39:25.562Z,4.20
2023-02-12T08:41:54.204Z,4.63
2023-02-12T08:44:20.718Z,5.85
2023-02-12T08:46:48.510Z,4.57
2023-02-12T08:49:21.988Z,5.25
2023-02-12T08:51:49.563Z,3.55
2023-02-12T08:54:20.259Z,4.15
2023-02-12T08:56:47.007Z,4.25
2023-02-12T08:59:16.804Z,4.40
2023-02-12T09:01:43.745Z,4.20
2023-02-12T09:04:15.182Z,4.22
2023-02-12T09:06:41.624Z,5.45
2023-02-12T09:09:08.033Z,3.42
2023-02-12T09:11:35.147Z,4.55
2023-02-12T09:14:02.672Z,4.32
2023-02-12T09:16:30.189Z,3.03
2023-02-12T09:18:57.059Z,3.35
2023-02-12T09:21:23.492Z,4.18
2023-02-12T09:23:50.285Z,5.03
2023-02-12T09:26:23.726Z,3.53
2023-02-12T09:28:50.555Z,4.90
2023-02-12T09:31:23.214Z,3.80
2023-02-12T09:33:53.357Z,3.67
2023-02-12T09:36:21.285Z,3.22
2023-02-12T09:38:48.838Z,5.18
2023-02-12T09:41:21.454Z,3.35
2023-02-12T09:44:06.623Z,4.07
2023-02-12T09:46:43.247Z,4.75
2023-02-12T09:49:18.257Z,4.07
2023-02-12T09:51:51.251Z,2.97
2023-02-12T09:54:19.479Z,3.78
2023-02-12T09:56:55.567Z,3.22
2023-02-12T09:59:33.895Z,3.55
2023-02-12T10:02:00.573Z,3.17
2023-02-12T10:04:28.146Z,3.58
2023-02-12T10:07:14.856Z,3.08
2023-02-12T10:09:51.324Z,3.22
2023-02-12T10:12:34.068Z,3.78
2023-02-12T10:15:06.627Z,3.38
2023-02-12T10:17:36.237Z,3.20
2023-02-12T10:20:16.107Z,3.83
2023-02-12T10:22:56.914Z,2.53
2023-02-12T10:25:41.181Z,3.38
2023-02-12T10:28:16.985Z,3.25
2023-02-12T10:30:45.257Z,2.70
2023-02-12T10:33:14.630Z,3.00
2023-02-12T10:35:43.721Z,3.20
2023-02-12T10:38:21.455Z,3.53
2023-02-12T10:40:50.261Z,3.00
2023-02-12T10:43:16.680Z,3.20
2023-02-12T10:45:43.941Z,4.45
2023-02-12T10:48:20.818Z,3.40
2023-02-12T10:50:55.907Z,3.60
2023-02-12T10:53:29.534Z,4.80
2023-02-12T10:56:14.716Z,4.95
2023-02-12T10:58:50.276Z,3.53
2023-02-12T11:01:19.906Z,3.40
2023-02-12T11:03:46.359Z,4.10
2023-02-12T11:06:31.843Z,5.00
2023-02-12T11:08:59.192Z,5.03
2023-02-12T11:11:32.836Z,3.72
2023-02-12T11:14:19.603Z,3.75
2023-02-12T11:16:53.881Z,4.85
2023-02-12T11:19:30.818Z,3.30
2023-02-12T11:22:18.576Z,3.10
2023-02-12T11:24:46.789Z,3.33
2023-02-12T11:27:16.313Z,2.28
2023-02-12T11:29:51.211Z,4.32
2023-02-12T11:32:18.927Z,3.53
2023-02-12T11:35:03.846Z,2.92
2023-02-12T11:37:33.140Z,3.88
2023-02-12T11:39:59.796Z,2.65
2023-02-12T11:42:26.553Z,3.10
2023-02-12T11:44:57.636Z,3.53
2023-02-12T11:47:27.004Z,2.72
2023-02-12T11:50:11.592Z,2.40
2023-02-12T11:52:41.382Z,2.45
2023-02-12T11:55:24.921Z,3.10
2023-02-12T11:57:52.882Z,2.20
2023-02-12T12:00:28.469Z,2.20
2023-02-12T12:03:16.749Z,2.92
2023-02-12T12:05:48.275Z,2.25
2023-02-12T12:08:19.742Z,2.08
2023-02-12T12:10:51.782Z,2.55
2023-02-12T12:13:25.043Z,1.77
2023-02-12T12:16:23.319Z,2.60
2023-02-12T12:19:15.298Z,2.95
2023-02-12T12:21:45.544Z,2.13
2023-02-12T12:24:17.442Z,2.20
2023-02-12T12:26:46.209Z,2.00
2023-02-12T12:29:24.902Z,2.38
2023-02-12T12:31:58.060Z,1.85
2023-02-12T12:34:26.067Z,2.67
2023-02-12T12:36:58.592Z,2.17
2023-02-12T12:39:33.069Z,2.47
2023-02-12T12:41:59.505Z,2.50
2023-02-12T12:44:32.096Z,1.83
2023-02-12T12:47:17.265Z,1.70
2023-02-12T12:49:46.760Z,1.52
2023-02-12T12:52:13.167Z,2.38
2023-02-12T12:54:39.543Z,1.98
2023-02-12T12:57:24.601Z,1.80
2023-02-12T12:59:59.336Z,1.38
2023-02-12T13:02:31.618Z,2.08
2023-02-12T13:05:01.164Z,1.50
2023-02-12T13:07:28.950Z,1.92
2023-02-12T13:10:01.892Z,1.58
2023-02-12T13:12:31.386Z,1.55
2023-02-12T13:15:16.670Z,1.30
2023-02-12T13:17:47.049Z,1.50
2023-02-12T13:20:16.653Z,1.80
2023-02-12T13:23:01.451Z,1.52
2023-02-12T13:25:31.128Z,2.33
2023-02-12T13:27:59.351Z,1.77
2023-02-12T13:30:31.311Z,2.03
2023-02-12T13:33:09.944Z,1.38
2023-02-12T13:35:38.171Z,1.50
2023-02-12T13:38:06.157Z,1.90
2023-02-12T13:40:32.846Z,1.83
2023-02-12T13:43:08.779Z,1.38
2023-02-12T13:45:35.147Z,2.22
2023-02-12T13:48:10.451Z,1.75
2023-02-12T13:50:49.240Z,1.75
2023-02-12T13:53:21.201Z,1.25
2023-02-12T13:55:47.633Z,1.45
2023-02-12T13:58:32.463Z,1.70
2023-02-12T14:01:03.443Z,1.60
2023-02-12T14:03:30.432Z,1.30
2023-02-12T14:06:09.282Z,1.30
2023-02-12T14:08:37.037Z,1.73
2023-02-12T14:11:05.033Z,1.40
2023-02-12T14:13:45.939Z,1.42
2023-02-12T14:18:38.796Z,1.40
2023-02-12T14:21:11.464Z,1.48
2023-02-12T14:23:39.143Z,1.20
2023-02-12T14:26:07.587Z,1.35
2023-02-12T14:28:34.617Z,1.38
2023-02-12T14:31:19.959Z,1.20
2023-02-12T14:33:47.425Z,1.38
2023-02-12T14:36:13.938Z,1.83
2023-02-12T14:38:47.516Z,1.55
2023-02-12T14:41:37.488Z,1.73
2023-02-12T14:44:29.352Z,1.77
2023-02-12T14:46:55.862Z,1.52
2023-02-12T14:49:30.342Z,1.92
2023-02-12T14:52:05.850Z,1.30
2023-02-12T14:54:41.240Z,1.60
2023-02-12T14:57:30.856Z,1.63
2023-02-12T14:59:57.249Z,2.08
2023-02-12T15:02:28.626Z,1.50
2023-02-12T15:04:58.416Z,1.42
2023-02-12T15:07:33.438Z,1.80
2023-02-12T15:10:10.234Z,2.13
2023-02-12T15:12:41.451Z,1.50
2023-02-12T15:15:08.713Z,1.30
2023-02-12T15:17:39.623Z,1.67
2023-02-12T15:22:32.669Z,1.38
2023-02-12T15:25:15.789Z,1.40
2023-02-12T15:27:46.692Z,1.83
2023-02-12T15:30:26.437Z,1.50
2023-02-12T15:32:54.478Z,2.23
2023-02-12T15:35:31.741Z,1.77
2023-02-12T15:38:01.974Z,1.40
2023-02-12T15:40:29.372Z,1.48
2023-02-12T15:42:57.207Z,2.20
2023-02-12T15:45:25.095Z,2.03
2023-02-12T15:47:56.752Z,2.85
2023-02-12T15:50:23.641Z,3.92
2023-02-12T15:52:50.876Z,1.85
2023-02-12T15:55:18.890Z,3.95
2023-02-12T15:57:57.355Z,3.50
2023-02-12T16:00:29.915Z,2.92
2023-02-12T16:02:56.365Z,2.45
2023-02-12T16:05:23.192Z,3.88
2023-02-12T16:07:49.630Z,2.67
2023-02-12T16:10:17.907Z,4.57
2023-02-12T16:12:44.616Z,2.38
2023-02-12T16:15:24.866Z,1.67
2023-02-12T16:17:51.300Z,2.50
2023-02-12T16:20:20.350Z,2.28
2023-02-12T16:22:48.173Z,2.58
2023-02-12T16:25:18.846Z,2.33
2023-02-12T16:28:13.408Z,2.95
2023-02-12T16:30:42.918Z,1.90
2023-02-12T16:33:27.946Z,2.42
2023-02-12T16:36:01.459Z,1.83
2023-02-12T16:38:38.915Z,2.45
2023-02-12T16:41:16.044Z,1.60
2023-02-12T16:43:42.484Z,2.00
2023-02-12T16:46:09.287Z,2.58
2023-02-12T16:48:40.333Z,2.15
2023-02-12T16:51:06.909Z,2.53
2023-02-12T16:53:34.987Z,2.33
2023-02-12T16:56:02.763Z,2.20
2023-02-12T16:58:29.188Z,3.38
2023-02-12T17:00:57.368Z,2.47
2023-02-12T17:03:24.601Z,2.75
2023-02-12T17:05:52.468Z,2.65
2023-02-12T17:08:20.799Z,2.90
2023-02-12T17:10:50.242Z,3.70
2023-02-12T17:13:17.079Z,3.63
2023-02-12T17:15:46.969Z,5.55
2023-02-12T17:18:17.297Z,4.28
2023-02-12T17:20:47.741Z,5.40
2023-02-12T17:23:14.248Z,5.38
2023-02-12T17:25:41.239Z,4.25
2023-02-12T17:28:08.791Z,3.65
2023-02-12T17:30:35.260Z,4.10
2023-02-12T17:33:01.674Z,4.25
2023-02-12T17:35:28.053Z,3.38
2023-02-12T17:37:57.471Z,3.75
2023-02-12T17:40:23.939Z,4.40
2023-02-12T17:42:50.378Z,4.20
2023-02-12T17:45:17.281Z,4.20
2023-02-12T17:47:43.691Z,3.88
2023-02-12T17:50:10.830Z,6.03
2023-02-12T17:52:37.277Z,4.53
2023-02-12T17:55:04.170Z,3.42
2023-02-12T17:57:30.597Z,3.67
2023-02-12T17:59:57.036Z,3.83
2023-02-12T18:02:23.452Z,5.75
2023-02-12T18:04:49.888Z,4.30
2023-02-12T18:07:16.334Z,3.75
2023-02-12T18:09:42.865Z,3.72
2023-02-12T18:12:09.581Z,3.17
2023-02-12T18:14:36.023Z,3.28
2023-02-12T18:17:02.441Z,3.08
2023-02-12T18:19:32.058Z,2.95
2023-02-12T18:21:58.468Z,3.25
2023-02-12T18:24:24.918Z,2.88
2023-02-12T18:26:51.663Z,3.03
2023-02-12T18:29:18.072Z,5.35
2023-02-12T18:31:44.632Z,2.67
2023-02-12T18:34:11.129Z,3.05
2023-02-12T18:36:39.362Z,2.13
2023-02-12T18:39:05.774Z,2.90
2023-02-12T18:41:32.853Z,2.50
2023-02-12T18:43:59.880Z,2.75
2023-02-12T18:46:27.827Z,2.90
2023-02-12T18:48:54.412Z,2.90
2023-02-12T18:51:22.627Z,3.90
2023-02-12T18:53:55.421Z,4.25
2023-02-12T18:56:21.866Z,3.22
2023-02-12T18:58:48.255Z,3.22
2023-02-12T19:01:19.101Z,3.30
2023-02-12T19:06:11.986Z,2.50
2023-02-12T19:08:38.476Z,2.45
2023-02-12T19:11:05.875Z,2.17
2023-02-12T19:13:32.261Z,3.67
2023-02-12T19:15:58.681Z,3.22
2023-02-12T19:18:25.185Z,3.05
2023-02-12T19:20:51.591Z,3.13
2023-02-12T19:23:18.024Z,2.38
2023-02-12T19:25:45.255Z,3.78
2023-02-12T19:28:14.794Z,3.63
2023-02-12T19:30:41.278Z,2.92
2023-02-12T19:33:07.661Z,3.28
2023-02-12T19:35:34.451Z,3.05
2023-02-12T19:38:01.822Z,3.63
2023-02-12T19:40:28.291Z,2.50
2023-02-12T19:42:54.782Z,3.08
2023-02-12T19:45:21.362Z,4.10
2023-02-12T19:47:47.795Z,3.38
2023-02-12T19:50:14.204Z,4.00
2023-02-12T19:52:41.375Z,5.45
2023-02-12T19:55:07.926Z,3.58
2023-02-12T19:57:36.706Z,3.10
2023-02-12T20:00:03.601Z,3.63
2023-02-12T20:02:30.074Z,4.70
2023-02-12T20:04:56.510Z,3.40
2023-02-12T20:07:22.899Z,3.88
2023-02-12T20:09:52.550Z,3.47
2023-02-12T20:12:19.090Z,4.82
2023-02-12T20:14:45.497Z,2.78
2023-02-12T20:17:11.897Z,3.42
2023-02-12T20:19:38.300Z,4.95
2023-02-12T20:22:04.705Z,3.78
2023-02-12T20:24:32.066Z,3.53
2023-02-12T20:27:01.212Z,3.63
2023-02-12T20:29:28.013Z,2.92
2023-02-12T20:31:54.607Z,2.85
2023-02-12T20:34:22.041Z,4.85
2023-02-12T20:36:48.793Z,3.00
2023-02-12T20:39:17.266Z,3.20
2023-02-12T20:41:43.702Z,2.72
2023-02-12T20:44:13.282Z,4.38
2023-02-12T20:46:40.272Z,2.97
2023-02-12T20:49:06.887Z,2.60
2023-02-12T20:51:33.483Z,2.30
2023-02-12T20:54:00.736Z,2.50
2023-02-12T20:56:28.645Z,2.35
2023-02-12T20:58:55.423Z,2.92
2023-02-12T21:01:26.818Z,2.63
2023-02-12T21:03:54.353Z,2.67
2023-02-12T21:06:21.682Z,2.83
2023-02-12T21:08:48.408Z,2.85
2023-02-12T21:11:16.304Z,2.40
2023-02-12T21:13:53.726Z,3.30
2023-02-12T21:16:32.554Z,2.75
2023-02-12T21:18:59.575Z,2.60
2023-02-12T21:21:30.126Z,2.15
2023-02-12T21:23:57.553Z,2.95
2023-02-12T21:26:24.784Z,2.72
2023-02-12T21:28:52.176Z,3.08
2023-02-12T21:31:18.619Z,3.03
2023-02-12T21:33:46.195Z,2.20
2023-02-12T21:36:23.440Z,3.72
2023-02-12T21:38:50.442Z,4.15
2023-02-12T21:41:18.252Z,3.75
2023-02-12T21:43:45.759Z,2.65
2023-02-12T21:46:12.681Z,2.70
2023-02-12T21:48:41.313Z,2.97
2023-02-12T21:51:16.456Z,2.90
2023-02-12T21:53:42.856Z,3.47
2023-02-12T21:56:09.248Z,3.22
2023-02-12T21:58:35.674Z,2.97
2023-02-12T22:01:05.951Z,2.85
2023-02-12T22:03:32.372Z,2.08
2023-02-12T22:06:02.552Z,2.88
2023-02-12T22:08:28.964Z,2.92
2023-02-12T22:10:55.740Z,3.17
2023-02-12T22:13:22.347Z,2.67
2023-02-12T22:15:48.904Z,3.25
2023-02-12T22:18:15.363Z,2.17
2023-02-12T22:20:41.798Z,2.70
2023-02-12T22:23:08.317Z,3.28
2023-02-12T22:25:34.711Z,4.82
2023-02-12T22:28:01.165Z,2.70
2023-02-12T22:30:27.704Z,2.75
2023-02-12T22:32:54.086Z,3.33
2023-02-12T22:35:20.579Z,3.03
2023-02-12T22:37:47.002Z,2.60
2023-02-12T22:40:15.615Z,3.60
2023-02-12T22:42:42.021Z,2.20
2023-02-12T22:45:08.599Z,3.25
2023-02-12T22:47:35.003Z,3.08
2023-02-12T22:50:01.650Z,2.78
2023-02-12T22:52:28.727Z,2.95
2023-02-12T22:54:55.236Z,2.55
2023-02-12T22:57:21.745Z,2.70
2023-02-12T22:59:49.159Z,2.95
2023-02-12T23:02:15.821Z,4.32
2023-02-12T23:04:42.275Z,3.00
2023-02-12T23:07:08.785Z,5.18
2023-02-12T23:09:35.243Z,2.83
2023-02-12T23:12:01.918Z,3.40
2023-02-12T23:14:28.322Z,3.42
2023-02-12T23:16:54.794Z,4.30
2023-02-12T23:19:21.410Z,2.17
2023-02-12T23:21:50.644Z,4.25
2023-02-12T23:24:17.060Z,2.42
2023-02-12T23:26:43.501Z,2.92
2023-02-12T23:29:09.941Z,3.60
2023-02-12T23:31:36.499Z,2.50
2023-02-12T23:34:03.308Z,2.72
2023-02-12T23:36:29.755Z,4.80
2023-02-12T23:38:56.203Z,3.60
2023-02-12T23:41:22.690Z,3.20
2023-02-12T23:43:49.109Z,3.00
2023-02-12T23:46:15.607Z,3.20
2023-02-12T23:48:42.216Z,3.15
2023-02-12T23:51:08.697Z,2.65
2023-02-12T23:53:35.127Z,3.00
2023-02-12T23:56:01.609Z,3.10
2023-02-12T23:58:28.105Z,2.80
